Terminal Aerodrome Forecast
Issued by NWS

Home | Current Version | Previous Version | Graphics & Text | Print | Product List | Glossary On
Versions: 1 2 3 4 5 6 7 8 9 10 11 12 13 14 15 16 17 18 19
000
FTUS43 KIWX 211610 AAA
TAFSBN
TAF AMD
KSBN 211610Z 2116/2212 18010KT P6SM SCT020 BKN150
      TEMPO 2116/2119 4SM BR OVC005
     FM220200 19004KT 4SM BR SCT015 OVC060
     FM220800 VRB02KT 2SM BR OVC015
      TEMPO 2209/2212 1/2SM FG VV004=

USA.gov is the U.S. government's official web portal to all federal, state and local government web resources and services.